createdAt,value
2023-06-15T00:00:42.696Z,5.2
2023-06-15T00:02:42.510Z,5.6
2023-06-15T00:04:42.863Z,6.3
2023-06-15T00:06:42.174Z,6.0
2023-06-15T00:08:42.281Z,5.1
2023-06-15T00:12:42.022Z,7.2
2023-06-15T00:16:42.191Z,6.4
2023-06-15T00:18:43.713Z,7.3
2023-06-15T00:22:45.657Z,9.3
2023-06-15T00:26:42.432Z,6.8
2023-06-15T00:30:41.742Z,5.9
2023-06-15T00:32:41.887Z,5.4
2023-06-15T00:34:40.759Z,6.2
2023-06-15T00:38:40.681Z,5.3
2023-06-15T00:40:40.903Z,6.9
2023-06-15T00:42:40.391Z,6.2
2023-06-15T00:44:41.078Z,6.8
2023-06-15T00:46:47.791Z,7.8
2023-06-15T00:48:40.565Z,6.0
2023-06-15T00:50:40.161Z,6.2
2023-06-15T00:52:45.800Z,6.5
2023-06-15T00:54:40.459Z,7.9
2023-06-15T00:58:39.577Z,8.6
2023-06-15T01:00:39.259Z,7.5
2023-06-15T01:02:40.046Z,7.7
2023-06-15T01:04:38.708Z,6.6
2023-06-15T01:06:42.197Z,5.4
2023-06-15T01:08:40.369Z,6.7
2023-06-15T01:10:38.634Z,7.3
2023-06-15T01:12:41.014Z,7.2
2023-06-15T01:14:38.704Z,5.7
2023-06-15T01:16:41.198Z,5.5
2023-06-15T01:20:40.380Z,9.5
2023-06-15T01:22:45.681Z,5.4
2023-06-15T01:24:41.319Z,5.1
2023-06-15T01:26:38.998Z,7.5
2023-06-15T01:32:37.381Z,6.5
2023-06-15T01:34:37.464Z,4.0
2023-06-15T01:36:38.151Z,6.8
2023-06-15T01:38:37.076Z,5.9
2023-06-15T01:40:38.342Z,8.7
2023-06-15T01:44:36.863Z,5.3
2023-06-15T01:50:36.653Z,8.8
2023-06-15T01:54:35.723Z,6.3
2023-06-15T01:56:36.083Z,6.5
2023-06-15T01:58:35.461Z,7.1
2023-06-15T02:00:36.183Z,7.3
2023-06-15T02:02:35.563Z,5.7
2023-06-15T02:04:35.608Z,8.7
2023-06-15T02:06:34.856Z,6.5
2023-06-15T02:08:34.564Z,5.9
2023-06-15T02:10:35.023Z,6.1
2023-06-15T02:18:33.813Z,6.7
2023-06-15T02:20:34.070Z,6.2
2023-06-15T02:22:33.274Z,10.5
2023-06-15T02:24:33.075Z,8.0
2023-06-15T02:26:32.954Z,5.9
2023-06-15T02:28:32.972Z,6.1
2023-06-15T02:30:32.826Z,6.6
2023-06-15T02:32:35.113Z,8.6
2023-06-15T02:34:33.242Z,7.3
2023-06-15T02:36:35.103Z,6.4
2023-06-15T02:38:32.616Z,6.3
2023-06-15T02:40:31.977Z,6.5
2023-06-15T02:42:32.336Z,6.1
2023-06-15T02:46:31.637Z,6.4
2023-06-15T02:48:31.335Z,8.6
2023-06-15T02:50:31.017Z,5.2
2023-06-15T02:52:32.041Z,7.5
2023-06-15T02:54:32.190Z,6.8
2023-06-15T02:58:32.385Z,6.3
2023-06-15T03:00:30.364Z,6.1
2023-06-15T03:02:30.537Z,6.5
2023-06-15T03:06:33.586Z,8.4
2023-06-15T03:10:29.468Z,9.6
2023-06-15T03:12:29.603Z,7.0
2023-06-15T03:14:29.096Z,7.0
2023-06-15T03:16:32.953Z,6.6
2023-06-15T03:18:30.090Z,5.9
2023-06-15T03:20:32.789Z,7.5
2023-06-15T03:22:28.746Z,9.1
2023-06-15T03:24:30.380Z,8.7
2023-06-15T03:26:27.946Z,8.0
2023-06-15T03:28:29.443Z,6.3
2023-06-15T03:30:30.501Z,6.8
2023-06-15T03:32:28.209Z,8.5
2023-06-15T03:34:28.270Z,8.3
2023-06-15T03:36:29.828Z,8.4
2023-06-15T03:38:27.227Z,9.8
2023-06-15T03:40:29.136Z,6.4
2023-06-15T03:42:26.592Z,7.0
2023-06-15T03:46:26.176Z,9.4
2023-06-15T03:48:26.493Z,7.5
2023-06-15T03:50:27.266Z,7.9
2023-06-15T03:52:26.219Z,6.4
2023-06-15T03:54:30.075Z,7.8
2023-06-15T03:56:25.881Z,8.4
2023-06-15T03:58:25.307Z,7.8
2023-06-15T04:00:25.007Z,7.4
2023-06-15T04:02:24.887Z,9.6
2023-06-15T04:04:24.865Z,7.1
2023-06-15T04:06:25.416Z,9.9
2023-06-15T04:10:24.227Z,6.9
2023-06-15T04:12:24.102Z,7.4
2023-06-15T04:14:23.690Z,6.8
2023-06-15T04:18:23.526Z,8.7
2023-06-15T04:20:23.214Z,7.5
2023-06-15T04:22:23.220Z,9.8
2023-06-15T04:24:23.469Z,7.4
2023-06-15T04:30:26.580Z,9.1
2023-06-15T04:32:25.783Z,8.6
2023-06-15T04:34:22.441Z,8.3
2023-06-15T04:36:22.366Z,8.8
2023-06-15T04:38:22.023Z,9.0
2023-06-15T04:40:22.087Z,10.3
2023-06-15T04:42:21.689Z,9.9
2023-06-15T04:44:21.388Z,9.7
2023-06-15T04:48:21.107Z,6.9
2023-06-15T04:50:21.746Z,8.2
2023-06-15T04:54:21.793Z,7.2
2023-06-15T04:58:20.584Z,9.5
2023-06-15T05:00:20.722Z,7.7
2023-06-15T05:02:20.240Z,9.2
2023-06-15T05:04:22.083Z,9.4
2023-06-15T05:06:19.796Z,7.6
2023-06-15T05:08:20.893Z,7.8
2023-06-15T05:10:23.598Z,9.9
2023-06-15T05:12:19.853Z,10.3
2023-06-15T05:14:19.193Z,8.7
2023-06-15T05:16:19.055Z,11.7
2023-06-15T05:18:19.534Z,9.1
2023-06-15T05:20:19.795Z,8.8
2023-06-15T05:22:18.800Z,8.0
2023-06-15T05:24:18.990Z,9.4
2023-06-15T05:30:18.432Z,9.3
2023-06-15T05:32:19.055Z,9.5
2023-06-15T05:36:32.017Z,11.1
2023-06-15T05:38:17.745Z,10.9
2023-06-15T05:40:19.278Z,11.0
2023-06-15T05:44:17.377Z,10.5
2023-06-15T05:46:18.135Z,9.7
2023-06-15T05:48:19.747Z,11.1
2023-06-15T05:50:17.109Z,10.9
2023-06-15T05:54:16.965Z,9.3
2023-06-15T05:56:16.482Z,9.1
2023-06-15T05:58:16.459Z,11.5
2023-06-15T06:00:16.741Z,10.0
2023-06-15T06:02:16.159Z,10.6
2023-06-15T06:04:16.644Z,8.2
2023-06-15T06:08:17.153Z,7.6
2023-06-15T06:10:17.637Z,12.2
2023-06-15T06:12:15.639Z,8.9
2023-06-15T06:14:16.881Z,7.5
2023-06-15T06:16:15.896Z,9.7
2023-06-15T06:18:16.949Z,10.8
2023-06-15T06:20:16.062Z,10.5
2023-06-15T06:22:15.137Z,11.2
2023-06-15T06:24:15.113Z,9.3
2023-06-15T06:26:14.863Z,8.4
2023-06-15T06:28:15.081Z,12.4
2023-06-15T06:30:15.109Z,8.9
2023-06-15T06:34:14.842Z,10.0
2023-06-15T06:36:14.877Z,8.3
2023-06-15T06:38:14.767Z,6.8
2023-06-15T06:40:14.187Z,8.2
2023-06-15T06:42:14.000Z,6.9
2023-06-15T06:44:15.628Z,10.0
2023-06-15T06:46:15.412Z,6.6
2023-06-15T06:48:13.846Z,9.0
2023-06-15T06:50:13.631Z,8.4
2023-06-15T06:52:13.745Z,10.7
2023-06-15T06:56:13.863Z,7.1
2023-06-15T06:58:13.254Z,11.3
2023-06-15T07:00:14.190Z,7.7
2023-06-15T07:02:13.995Z,7.6
2023-06-15T07:04:13.917Z,7.6
2023-06-15T07:06:13.492Z,7.5
2023-06-15T07:08:12.920Z,11.2
2023-06-15T07:10:13.144Z,14.8
2023-06-15T07:12:12.716Z,6.8
2023-06-15T07:14:13.672Z,7.3
2023-06-15T07:16:12.855Z,8.9
2023-06-15T07:18:14.407Z,6.3
2023-06-15T07:20:12.785Z,7.4
2023-06-15T07:22:12.567Z,7.9
2023-06-15T07:24:12.761Z,8.0
2023-06-15T07:26:12.266Z,6.6
2023-06-15T07:30:13.218Z,7.4
2023-06-15T07:32:13.656Z,9.3
2023-06-15T07:34:12.645Z,5.9
2023-06-15T07:36:12.085Z,6.1
2023-06-15T07:40:12.228Z,9.8
2023-06-15T07:42:12.236Z,6.6
2023-06-15T07:44:12.502Z,5.2
2023-06-15T07:48:11.941Z,8.1
2023-06-15T07:50:11.646Z,6.6
2023-06-15T07:56:11.324Z,4.8
2023-06-15T07:58:11.899Z,9.0
2023-06-15T08:00:13.100Z,8.2
2023-06-15T08:02:11.150Z,7.9
2023-06-15T08:06:11.857Z,8.2
2023-06-15T08:08:11.469Z,6.6
2023-06-15T08:10:11.245Z,4.5
2023-06-15T08:12:11.377Z,8.9
2023-06-15T08:14:11.058Z,5.1
2023-06-15T08:16:10.936Z,7.1
2023-06-15T08:18:10.797Z,8.3
2023-06-15T08:20:12.268Z,5.9
2023-06-15T08:22:10.926Z,8.2
2023-06-15T08:24:12.978Z,7.0
2023-06-15T08:26:10.761Z,6.7
2023-06-15T08:32:13.739Z,10.9
2023-06-15T08:36:11.201Z,6.4
2023-06-15T08:38:10.770Z,7.5
2023-06-15T08:40:12.061Z,5.8
2023-06-15T08:44:10.427Z,5.3
2023-06-15T08:46:10.910Z,11.6
2023-06-15T08:48:11.649Z,5.8
2023-06-15T08:50:11.056Z,6.2
2023-06-15T08:52:13.449Z,5.8
2023-06-15T08:56:11.413Z,4.1
2023-06-15T08:58:11.078Z,6.3
2023-06-15T09:00:10.978Z,5.8
2023-06-15T09:02:18.016Z,5.0
2023-06-15T09:04:10.766Z,5.5
2023-06-15T09:06:10.314Z,7.3
2023-06-15T09:08:10.242Z,6.9
2023-06-15T09:10:14.965Z,4.4
2023-06-15T09:12:18.475Z,6.0
2023-06-15T09:14:10.774Z,8.1
2023-06-15T09:16:10.351Z,5.7
2023-06-15T09:18:10.958Z,4.9
2023-06-15T09:20:11.049Z,5.4
2023-06-15T09:22:10.396Z,5.6
2023-06-15T09:24:11.201Z,6.3
2023-06-15T09:26:19.949Z,5.2
2023-06-15T09:28:10.859Z,5.4
2023-06-15T09:30:13.188Z,3.6
2023-06-15T09:32:11.335Z,6.1
2023-06-15T09:34:12.493Z,6.2
2023-06-15T09:36:10.150Z,5.6
2023-06-15T09:38:10.158Z,5.1
2023-06-15T09:40:11.237Z,4.8
2023-06-15T09:42:10.277Z,7.8
2023-06-15T09:44:10.343Z,5.8
2023-06-15T09:48:11.537Z,6.8
2023-06-15T09:50:11.017Z,5.1
2023-06-15T09:52:11.890Z,5.8
2023-06-15T09:54:10.793Z,7.3
2023-06-15T09:56:25.303Z,5.0
2023-06-15T10:04:12.312Z,5.6
2023-06-15T10:06:16.254Z,6.1
2023-06-15T10:08:11.760Z,6.1
2023-06-15T10:12:14.040Z,7.7
2023-06-15T10:14:17.833Z,7.3
2023-06-15T10:16:13.285Z,6.2
2023-06-15T10:18:13.080Z,7.3
2023-06-15T10:22:16.182Z,5.5
2023-06-15T10:24:13.982Z,5.5
2023-06-15T10:26:11.156Z,8.3
2023-06-15T10:28:13.070Z,5.5
2023-06-15T10:30:19.078Z,7.8
2023-06-15T10:32:16.623Z,8.5
2023-06-15T10:34:16.425Z,6.8
2023-06-15T10:36:22.601Z,7.6
2023-06-15T10:38:24.522Z,5.5
2023-06-15T10:42:13.954Z,5.9
2023-06-15T10:46:25.528Z,8.3
2023-06-15T10:48:20.817Z,6.2
2023-06-15T10:54:22.350Z,8.4
2023-06-15T10:56:13.986Z,5.9
2023-06-15T10:58:15.637Z,5.0
2023-06-15T11:00:12.518Z,7.6
2023-06-15T11:02:31.605Z,8.6
2023-06-15T11:04:29.535Z,6.6
2023-06-15T11:06:18.607Z,10.6
2023-06-15T11:10:14.756Z,6.9
2023-06-15T11:12:35.832Z,8.1
2023-06-15T11:16:14.014Z,6.3
2023-06-15T11:18:13.918Z,9.4
2023-06-15T11:20:32.208Z,7.8
2023-06-15T11:22:25.823Z,7.6
2023-06-15T11:26:14.433Z,7.3
2023-06-15T11:28:26.828Z,6.6
2023-06-15T11:30:14.595Z,6.1
2023-06-15T11:32:13.304Z,8.2
2023-06-15T11:34:12.618Z,6.7
2023-06-15T11:36:13.139Z,6.6
2023-06-15T11:38:12.776Z,6.6
2023-06-15T11:40:16.605Z,6.5
2023-06-15T11:42:13.819Z,6.9
2023-06-15T11:48:13.801Z,6.1
2023-06-15T11:50:16.110Z,9.3
2023-06-15T11:52:15.122Z,10.3
2023-06-15T11:54:14.814Z,7.0
2023-06-15T11:56:15.425Z,5.4
2023-06-15T11:58:14.227Z,11.1
2023-06-15T12:00:14.317Z,6.4
2023-06-15T12:02:13.884Z,9.1
2023-06-15T12:04:13.930Z,5.8
2023-06-15T12:06:15.429Z,6.0
2023-06-15T12:10:18.135Z,9.3
2023-06-15T12:14:16.708Z,7.6
2023-06-15T12:16:15.225Z,7.0
2023-06-15T12:18:16.680Z,7.9
2023-06-15T12:20:14.983Z,8.1
2023-06-15T12:28:16.575Z,22.5
2023-06-15T12:30:17.346Z,15.4
2023-06-15T12:32:21.953Z,7.6
2023-06-15T12:34:19.346Z,7.7
2023-06-15T12:36:15.451Z,9.9
2023-06-15T12:38:15.442Z,6.5
2023-06-15T12:42:19.813Z,6.3
2023-06-15T12:44:15.709Z,7.0
2023-06-15T12:46:17.170Z,5.6
2023-06-15T12:48:16.035Z,6.3
2023-06-15T12:52:15.969Z,7.6
2023-06-15T12:54:16.343Z,7.6
2023-06-15T12:56:16.190Z,7.6
2023-06-15T12:58:16.616Z,6.0
2023-06-15T13:00:18.535Z,6.6
2023-06-15T13:02:16.624Z,6.2
2023-06-15T13:04:16.982Z,6.8
2023-06-15T13:06:16.885Z,6.9
2023-06-15T13:08:17.086Z,6.5
2023-06-15T13:10:17.388Z,6.6
2023-06-15T13:12:17.573Z,6.0
2023-06-15T13:16:17.248Z,7.5
2023-06-15T13:18:17.360Z,9.4
2023-06-15T13:20:18.566Z,9.1
2023-06-15T13:22:17.549Z,9.7
2023-06-15T13:24:17.789Z,7.9
2023-06-15T13:26:17.675Z,10.9
2023-06-15T13:28:18.225Z,7.3
2023-06-15T13:30:18.491Z,8.2
2023-06-15T13:32:18.207Z,12.0
2023-06-15T13:34:18.164Z,9.5
2023-06-15T13:36:18.136Z,6.2
2023-06-15T13:38:18.195Z,6.3
2023-06-15T13:40:18.814Z,8.9
2023-06-15T13:42:18.413Z,7.8
2023-06-15T13:44:18.836Z,10.7
2023-06-15T13:46:18.596Z,7.2
2023-06-15T13:48:18.736Z,12.1
2023-06-15T13:50:21.172Z,9.8
2023-06-15T13:52:18.872Z,5.7
2023-06-15T13:54:19.513Z,7.6
2023-06-15T13:56:19.657Z,7.8
2023-06-15T14:00:20.160Z,7.6
2023-06-15T14:02:19.462Z,6.5
2023-06-15T14:04:19.927Z,9.6
2023-06-15T14:06:20.784Z,6.1
2023-06-15T14:10:20.205Z,8.1
2023-06-15T14:12:20.348Z,6.4
2023-06-15T14:14:20.209Z,4.6
2023-06-15T14:16:20.801Z,10.7
2023-06-15T14:20:20.904Z,5.6
2023-06-15T14:22:20.820Z,9.5
2023-06-15T14:26:21.231Z,7.4
2023-06-15T14:28:21.152Z,6.9
2023-06-15T14:30:21.582Z,7.3
2023-06-15T14:32:21.477Z,6.9
2023-06-15T14:34:22.143Z,5.8
2023-06-15T14:36:21.516Z,7.0
2023-06-15T14:38:22.226Z,8.9
2023-06-15T14:40:21.914Z,6.0
2023-06-15T14:42:25.019Z,7.6
2023-06-15T14:46:22.288Z,7.9
2023-06-15T14:48:22.314Z,7.6
2023-06-15T14:50:22.485Z,8.5
2023-06-15T14:52:22.425Z,8.0
2023-06-15T14:54:22.592Z,8.3
2023-06-15T14:56:23.131Z,5.9
2023-06-15T15:00:23.352Z,8.1
2023-06-15T15:02:23.310Z,8.1
2023-06-15T15:04:23.142Z,8.0
2023-06-15T15:06:23.821Z,7.2
2023-06-15T15:08:23.352Z,6.2
2023-06-15T15:10:24.257Z,7.7
2023-06-15T15:12:23.560Z,8.0
2023-06-15T15:16:24.211Z,5.3
2023-06-15T15:18:23.898Z,6.6
2023-06-15T15:20:24.230Z,6.3
2023-06-15T15:22:24.334Z,7.3
2023-06-15T15:24:24.550Z,7.1
2023-06-15T15:26:24.443Z,6.8
2023-06-15T15:28:25.804Z,9.6
2023-06-15T15:30:24.730Z,6.0
2023-06-15T15:32:24.869Z,5.5
2023-06-15T15:34:25.491Z,7.7
2023-06-15T15:36:25.402Z,6.2
2023-06-15T15:38:25.138Z,11.2
2023-06-15T15:40:25.558Z,7.7
2023-06-15T15:42:25.272Z,6.5
2023-06-15T15:44:25.810Z,5.4
2023-06-15T15:46:26.963Z,7.9
2023-06-15T15:50:26.033Z,9.4
2023-06-15T15:52:25.905Z,11.8
2023-06-15T15:54:26.061Z,8.3
2023-06-15T15:58:26.591Z,7.7
2023-06-15T16:02:30.377Z,7.0
2023-06-15T16:04:26.806Z,8.9
2023-06-15T16:06:27.089Z,5.6
2023-06-15T16:08:27.130Z,9.4
2023-06-15T16:10:28.201Z,8.9
2023-06-15T16:12:27.376Z,7.8
2023-06-15T16:14:27.554Z,6.7
2023-06-15T16:16:29.543Z,9.5
2023-06-15T16:18:27.936Z,9.8
2023-06-15T16:20:27.923Z,7.8
2023-06-15T16:22:29.067Z,8.9
2023-06-15T16:24:28.478Z,7.1
2023-06-15T16:26:28.570Z,9.0
2023-06-15T16:30:28.776Z,9.7
2023-06-15T16:32:29.058Z,8.3
2023-06-15T16:34:29.167Z,11.0
2023-06-15T16:36:29.092Z,8.0
2023-06-15T16:38:29.261Z,9.4
2023-06-15T16:40:29.622Z,7.6
2023-06-15T16:42:30.410Z,10.3
2023-06-15T16:44:29.580Z,11.6
2023-06-15T16:46:29.975Z,6.8
2023-06-15T16:48:29.834Z,7.8
2023-06-15T16:50:30.006Z,10.0
2023-06-15T16:54:30.291Z,8.0
2023-06-15T16:56:30.493Z,8.0
2023-06-15T16:58:30.611Z,7.2
2023-06-15T17:00:31.053Z,8.4
2023-06-15T17:02:30.801Z,11.3
2023-06-15T17:06:30.974Z,6.6
2023-06-15T17:08:30.950Z,8.0
2023-06-15T17:16:31.714Z,10.4
2023-06-15T17:20:31.829Z,6.5
2023-06-15T17:22:32.169Z,11.2
2023-06-15T17:24:32.158Z,9.2
2023-06-15T17:26:32.361Z,7.2
2023-06-15T17:28:32.261Z,10.1
2023-06-15T17:30:32.300Z,8.7
2023-06-15T17:32:32.971Z,6.4
2023-06-15T17:36:32.753Z,9.4
2023-06-15T17:38:32.968Z,9.1
2023-06-15T17:40:32.961Z,10.8
2023-06-15T17:42:32.985Z,8.5
2023-06-15T17:44:33.180Z,7.3
2023-06-15T17:46:33.554Z,6.2
2023-06-15T17:48:33.515Z,6.9
2023-06-15T17:50:33.570Z,7.3
2023-06-15T17:52:37.138Z,8.2
2023-06-15T17:54:33.955Z,10.8
2023-06-15T17:56:34.058Z,9.4
2023-06-15T17:58:34.018Z,7.6
2023-06-15T18:00:34.487Z,7.8
2023-06-15T18:04:35.748Z,8.1
2023-06-15T18:06:34.834Z,7.6
2023-06-15T18:08:37.209Z,9.2
2023-06-15T18:10:34.906Z,9.0
2023-06-15T18:12:34.977Z,6.9
2023-06-15T18:14:34.985Z,7.2
2023-06-15T18:16:35.262Z,8.1
2023-06-15T18:18:35.221Z,9.4
2023-06-15T18:20:38.355Z,7.9
2023-06-15T18:22:35.630Z,9.5
2023-06-15T18:24:35.600Z,11.8
2023-06-15T18:26:35.748Z,9.5
2023-06-15T18:28:35.943Z,11.2
2023-06-15T18:30:36.079Z,9.5
2023-06-15T18:32:37.171Z,9.6
2023-06-15T18:34:47.237Z,7.3
2023-06-15T18:38:36.394Z,15.3
2023-06-15T18:40:36.708Z,5.9
2023-06-15T18:42:36.840Z,11.1
2023-06-15T18:44:36.769Z,10.3
2023-06-15T18:46:36.924Z,9.2
2023-06-15T18:48:37.699Z,8.4
2023-06-15T18:50:37.054Z,8.8
2023-06-15T18:52:37.285Z,10.4
2023-06-15T18:54:37.450Z,9.5
2023-06-15T18:58:38.893Z,8.9
2023-06-15T19:02:37.958Z,7.6
2023-06-15T19:04:37.767Z,7.1
2023-06-15T19:06:38.629Z,11.7
2023-06-15T19:08:37.934Z,6.6
2023-06-15T19:10:38.074Z,7.5
2023-06-15T19:12:38.356Z,9.2
2023-06-15T19:14:38.368Z,11.0
2023-06-15T19:16:38.425Z,7.1
2023-06-15T19:18:38.478Z,8.6
2023-06-15T19:22:38.855Z,8.3
2023-06-15T19:24:39.935Z,6.8
2023-06-15T19:26:39.652Z,8.6
2023-06-15T19:28:39.155Z,11.4
2023-06-15T19:30:38.804Z,8.8
2023-06-15T19:34:39.221Z,8.0
2023-06-15T19:40:39.539Z,13.5
2023-06-15T19:42:41.343Z,8.8
2023-06-15T19:46:40.151Z,7.8
2023-06-15T19:48:39.443Z,9.2
2023-06-15T19:50:39.511Z,6.9
2023-06-15T19:52:39.536Z,5.8
2023-06-15T19:54:39.716Z,8.3
2023-06-15T19:56:41.820Z,7.3
2023-06-15T19:58:39.661Z,10.1
2023-06-15T20:02:40.075Z,8.0
2023-06-15T20:04:39.834Z,9.4
2023-06-15T20:06:40.303Z,6.5
2023-06-15T20:10:41.710Z,8.2
2023-06-15T20:12:40.095Z,7.9
2023-06-15T20:14:40.017Z,10.9
2023-06-15T20:16:40.463Z,6.4
2023-06-15T20:18:41.682Z,8.1
2023-06-15T20:20:40.268Z,9.6
2023-06-15T20:22:40.543Z,7.1
2023-06-15T20:24:40.528Z,7.8
2023-06-15T20:26:40.894Z,5.3
2023-06-15T20:28:40.582Z,7.6
2023-06-15T20:30:40.544Z,6.3
2023-06-15T20:34:40.495Z,10.0
2023-06-15T20:36:42.524Z,10.4
2023-06-15T20:38:41.019Z,8.0
2023-06-15T20:42:40.706Z,7.4
2023-06-15T20:44:40.979Z,7.9
2023-06-15T20:46:40.688Z,7.7
2023-06-15T20:48:40.645Z,6.3
2023-06-15T20:50:40.638Z,7.1
2023-06-15T20:52:41.963Z,10.5
2023-06-15T20:54:40.747Z,8.7
2023-06-15T20:56:40.837Z,8.6
2023-06-15T20:58:42.417Z,8.3
2023-06-15T21:00:40.748Z,7.4
2023-06-15T21:02:41.190Z,8.0
2023-06-15T21:04:40.777Z,10.2
2023-06-15T21:06:40.924Z,6.2
2023-06-15T21:08:40.809Z,7.9
2023-06-15T21:10:40.849Z,6.8
2023-06-15T21:12:40.921Z,5.9
2023-06-15T21:14:42.377Z,8.2
2023-06-15T21:16:41.021Z,10.2
2023-06-15T21:18:40.860Z,9.1
2023-06-15T21:20:41.193Z,7.9
2023-06-15T21:22:41.195Z,8.5
2023-06-15T21:24:40.930Z,8.9
2023-06-15T21:26:41.115Z,7.5
2023-06-15T21:28:40.782Z,5.2
2023-06-15T21:30:40.791Z,6.4
2023-06-15T21:32:40.923Z,8.2
2023-06-15T21:34:40.737Z,7.8
2023-06-15T21:36:40.747Z,5.6
2023-06-15T21:38:40.686Z,8.9
2023-06-15T21:40:40.870Z,6.1
2023-06-15T21:42:40.642Z,9.7
2023-06-15T21:44:42.378Z,7.9
2023-06-15T21:46:40.816Z,6.7
2023-06-15T21:48:40.745Z,8.5
2023-06-15T21:50:40.670Z,7.0
2023-06-15T21:52:46.181Z,7.0
2023-06-15T21:54:41.211Z,6.3
2023-06-15T21:56:40.636Z,6.1
2023-06-15T21:58:41.483Z,6.6
2023-06-15T22:00:40.491Z,12.4
2023-06-15T22:02:40.641Z,8.6
2023-06-15T22:04:42.692Z,8.7
2023-06-15T22:06:41.435Z,6.9
2023-06-15T22:08:40.778Z,6.5
2023-06-15T22:12:41.134Z,7.7
2023-06-15T22:16:41.230Z,6.0
2023-06-15T22:18:42.466Z,5.8
2023-06-15T22:20:41.972Z,7.5
2023-06-15T22:24:40.977Z,6.5
2023-06-15T22:28:40.157Z,7.4
2023-06-15T22:30:40.680Z,7.0
2023-06-15T22:32:40.572Z,7.5
2023-06-15T22:34:41.764Z,7.9
2023-06-15T22:36:40.907Z,5.8
2023-06-15T22:38:39.871Z,5.8
2023-06-15T22:42:39.552Z,10.5
2023-06-15T22:44:39.904Z,10.1
2023-06-15T22:46:39.438Z,10.8
2023-06-15T22:48:42.576Z,10.9
2023-06-15T22:50:39.291Z,8.1
2023-06-15T22:52:41.393Z,7.9
2023-06-15T22:54:40.352Z,145.4
2023-06-15T22:56:39.086Z,24.0
2023-06-15T22:58:39.032Z,203.2
2023-06-15T23:00:39.108Z,195.7
2023-06-15T23:02:39.020Z,123.2
2023-06-15T23:04:38.906Z,93.9
2023-06-15T23:06:41.974Z,32.6
2023-06-15T23:08:38.631Z,46.8
2023-06-15T23:10:40.859Z,141.9
2023-06-15T23:12:39.113Z,83.2
2023-06-15T23:14:40.221Z,15.4
2023-06-15T23:16:40.151Z,21.2
2023-06-15T23:18:38.251Z,12.0
2023-06-15T23:20:40.345Z,8.4
2023-06-15T23:22:41.088Z,27.1
2023-06-15T23:24:37.976Z,17.5
2023-06-15T23:26:39.289Z,10.0
2023-06-15T23:28:39.683Z,7.4
2023-06-15T23:30:37.799Z,9.9
2023-06-15T23:32:37.745Z,7.2
2023-06-15T23:34:37.917Z,7.8
2023-06-15T23:36:38.093Z,8.3
2023-06-15T23:38:37.544Z,8.8
2023-06-15T23:40:37.525Z,8.4
2023-06-15T23:42:37.321Z,9.4
2023-06-15T23:44:37.344Z,9.3
2023-06-15T23:46:37.266Z,10.3
2023-06-15T23:48:37.060Z,7.3
2023-06-15T23:50:37.062Z,7.8
2023-06-15T23:52:37.040Z,9.1
2023-06-15T23:54:36.763Z,6.4
2023-06-15T23:58:36.979Z,7.0
